createdAt,value
2023-03-13T00:01:14.135Z,4.95
2023-03-13T00:13:43.195Z,5.80
2023-03-13T00:20:05.785Z,5.07
2023-03-13T00:26:50.740Z,5.10
2023-03-13T00:36:59.578Z,5.60
2023-03-13T00:43:09.690Z,5.07
2023-03-13T00:49:17.308Z,4.97
2023-03-13T00:55:26.525Z,4.97
2023-03-13T01:01:35.964Z,5.38
2023-03-13T01:07:43.546Z,4.30
2023-03-13T01:13:55.251Z,4.93
2023-03-13T01:27:36.881Z,5.45
2023-03-13T01:37:35.362Z,5.22
2023-03-13T01:47:36.615Z,5.35
2023-03-13T01:50:06.454Z,6.78
2023-03-13T01:56:28.356Z,6.95
2023-03-13T02:02:52.734Z,7.78
2023-03-13T02:09:10.991Z,8.10
2023-03-13T02:15:27.520Z,8.70
2023-03-13T02:21:50.464Z,7.50
2023-03-13T02:24:50.769Z,8.30
2023-03-13T02:50:02.556Z,10.80
2023-03-13T02:56:19.963Z,10.73
2023-03-13T03:02:47.234Z,12.75
2023-03-13T03:16:09.368Z,10.60
2023-03-13T03:26:12.618Z,8.07
2023-03-13T03:28:39.729Z,8.75
2023-03-13T03:38:57.983Z,5.47
2023-03-13T03:45:11.790Z,4.90
2023-03-13T04:03:09.560Z,3.10
2023-03-13T04:13:10.890Z,3.60
2023-03-13T04:16:35.971Z,2.85
2023-03-13T04:34:14.053Z,2.85
2023-03-13T04:40:25.473Z,3.60
2023-03-13T04:46:41.869Z,2.53
2023-03-13T05:04:55.052Z,3.33
2023-03-13T05:11:42.189Z,2.90
2023-03-13T05:18:04.511Z,3.08
2023-03-13T05:32:20.132Z,4.30
2023-03-13T05:46:15.383Z,2.60
2023-03-13T05:56:19.052Z,1.90
2023-03-13T06:06:51.057Z,2.65
2023-03-13T06:17:12.530Z,2.72
2023-03-13T06:23:20.281Z,2.83
2023-03-13T06:29:28.113Z,2.40
2023-03-13T06:35:54.782Z,2.60
2023-03-13T06:42:10.262Z,3.92
2023-03-13T06:48:23.220Z,4.40
2023-03-13T06:54:32.399Z,4.20
2023-03-13T07:00:40.852Z,4.05
2023-03-13T07:07:01.728Z,3.72
2023-03-13T07:13:11.093Z,3.90
2023-03-13T07:27:23.619Z,2.45
2023-03-13T07:42:10.499Z,2.15
2023-03-13T07:45:07.366Z,2.60
2023-03-13T07:51:43.903Z,2.38
2023-03-13T07:54:53.133Z,2.22
2023-03-13T08:01:11.140Z,1.83
2023-03-13T08:07:30.463Z,1.90
2023-03-13T08:20:55.204Z,2.40
2023-03-13T08:27:05.934Z,2.15
2023-03-13T08:33:13.545Z,3.05
2023-03-13T08:46:41.306Z,1.45
2023-03-13T08:52:51.236Z,2.13
2023-03-13T08:59:01.193Z,1.52
2023-03-13T09:01:35.148Z,2.05
2023-03-13T09:07:53.859Z,1.77
2023-03-13T09:15:25.546Z,1.77
2023-03-13T09:25:29.221Z,2.60
2023-03-13T09:31:46.397Z,1.80
2023-03-13T09:38:01.000Z,2.45
2023-03-13T09:44:23.253Z,1.70
2023-03-13T09:50:47.965Z,2.10
2023-03-13T10:03:35.459Z,1.70
2023-03-13T12:04:10.325Z,2.70
2023-03-13T12:06:44.041Z,2.97
2023-03-13T12:09:26.125Z,2.70
2023-03-13T12:12:03.672Z,3.30
2023-03-13T12:14:38.481Z,2.92
2023-03-13T12:17:21.545Z,2.85
2023-03-13T12:20:11.567Z,2.35
2023-03-13T12:22:49.878Z,2.55
2023-03-13T12:25:24.252Z,2.63
2023-03-13T12:27:55.661Z,3.22
2023-03-13T12:30:36.839Z,2.75
2023-03-13T12:33:18.394Z,4.57
2023-03-13T12:36:00.370Z,2.90
2023-03-13T12:39:01.782Z,2.22
2023-03-13T12:41:56.165Z,2.95
2023-03-13T12:44:25.914Z,3.38
2023-03-13T12:47:06.072Z,3.42
2023-03-13T12:52:35.208Z,2.05
2023-03-13T12:55:38.322Z,3.92
2023-03-13T12:58:40.045Z,2.85
2023-03-13T13:01:17.294Z,2.33
2023-03-13T13:03:53.318Z,2.40
2023-03-13T13:06:25.411Z,2.58
2023-03-13T13:09:16.199Z,2.78
2023-03-13T13:11:52.830Z,2.05
2023-03-13T13:14:58.333Z,2.45
2023-03-13T13:17:50.185Z,2.47
2023-03-13T13:20:36.504Z,3.13
2023-03-13T13:23:38.583Z,2.45
2023-03-13T13:26:39.463Z,3.13
2023-03-13T13:29:56.438Z,2.20
2023-03-13T13:32:54.823Z,2.05
2023-03-13T13:35:28.778Z,2.22
2023-03-13T13:38:37.236Z,3.08
2023-03-13T13:41:21.830Z,2.67
2023-03-13T13:44:34.349Z,2.78
2023-03-13T13:47:02.629Z,3.63
2023-03-13T13:49:39.248Z,2.38
2023-03-13T13:52:43.473Z,2.92
2023-03-13T13:55:49.441Z,2.95
2023-03-13T13:58:48.183Z,3.50
2023-03-13T14:01:18.399Z,2.70
2023-03-13T14:03:46.458Z,3.40
2023-03-13T14:08:49.041Z,3.17
2023-03-13T14:11:25.933Z,2.60
2023-03-13T14:14:16.637Z,2.70
2023-03-13T14:16:47.868Z,2.58
2023-03-13T14:19:27.782Z,3.05
2023-03-13T14:22:05.934Z,2.50
2023-03-13T14:24:33.610Z,2.90
2023-03-13T14:27:17.307Z,3.45
2023-03-13T14:30:01.530Z,2.38
2023-03-13T14:32:40.295Z,2.95
2023-03-13T14:35:14.811Z,3.15
2023-03-13T14:37:49.337Z,2.70
2023-03-13T14:40:23.868Z,3.08
2023-03-13T14:42:56.704Z,3.55
2023-03-13T14:45:35.821Z,2.42
2023-03-13T14:48:17.719Z,2.97
2023-03-13T14:50:47.899Z,3.53
2023-03-13T14:53:20.066Z,3.38
2023-03-13T14:56:12.513Z,2.53
2023-03-13T14:58:47.375Z,3.30
2023-03-13T15:01:27.420Z,1.90
2023-03-13T15:03:59.929Z,3.65
2023-03-13T15:06:48.205Z,3.55
2023-03-13T15:09:28.219Z,3.20
2023-03-13T15:12:05.707Z,2.88
2023-03-13T15:14:38.322Z,3.13
2023-03-13T15:17:46.900Z,3.67
2023-03-13T15:20:16.887Z,3.17
2023-03-13T15:22:46.457Z,2.85
2023-03-13T15:25:19.835Z,3.08
2023-03-13T15:27:47.764Z,2.35
2023-03-13T15:30:23.666Z,3.58
2023-03-13T15:32:57.021Z,3.35
2023-03-13T15:35:32.050Z,2.58
2023-03-13T15:38:00.970Z,3.47
2023-03-13T15:40:31.329Z,2.92
2023-03-13T15:43:05.069Z,3.53
2023-03-13T15:45:32.918Z,3.60
2023-03-13T15:48:01.423Z,3.40
2023-03-13T15:50:33.633Z,3.08
2023-03-13T15:53:18.187Z,3.60
2023-03-13T15:55:46.641Z,2.85
2023-03-13T15:58:14.602Z,2.88
2023-03-13T16:00:43.701Z,3.42
2023-03-13T16:03:15.776Z,2.92
2023-03-13T16:05:45.027Z,2.17
2023-03-13T16:08:29.195Z,2.88
2023-03-13T16:11:03.115Z,2.85
2023-03-13T16:13:37.276Z,2.75
2023-03-13T16:16:16.323Z,1.98
2023-03-13T16:18:45.707Z,2.58
2023-03-13T16:21:27.201Z,3.53
2023-03-13T16:23:57.673Z,2.70
2023-03-13T16:26:31.742Z,2.92
2023-03-13T16:31:33.646Z,3.10
2023-03-13T16:34:04.028Z,3.50
2023-03-13T16:36:38.034Z,3.78
2023-03-13T16:39:18.396Z,2.90
2023-03-13T16:41:49.030Z,2.97
2023-03-13T16:44:16.861Z,2.92
2023-03-13T16:47:04.215Z,2.40
2023-03-13T16:49:33.937Z,3.28
2023-03-13T16:52:12.857Z,2.75
2023-03-13T16:54:42.712Z,2.78
2023-03-13T16:57:13.043Z,3.45
2023-03-13T16:59:41.974Z,3.05
2023-03-13T17:02:15.821Z,2.88
2023-03-13T17:04:54.033Z,2.83
2023-03-13T17:07:26.795Z,2.60
2023-03-13T17:09:54.737Z,2.60
2023-03-13T17:14:56.927Z,2.85
2023-03-13T17:17:42.578Z,2.65
2023-03-13T17:20:19.629Z,3.25
2023-03-13T17:22:48.932Z,2.88
2023-03-13T17:25:16.653Z,3.50
2023-03-13T17:27:49.670Z,3.25
2023-03-13T17:30:23.589Z,2.95
2023-03-13T17:32:52.729Z,3.10
2023-03-13T17:35:21.850Z,2.38
2023-03-13T17:37:56.317Z,4.03
2023-03-13T17:40:29.801Z,4.93
2023-03-13T17:42:58.600Z,2.92
2023-03-13T17:45:33.381Z,2.00
2023-03-13T17:48:03.503Z,3.92
2023-03-13T17:50:36.578Z,3.45
2023-03-13T17:53:08.731Z,3.75
2023-03-13T17:55:44.443Z,3.22
2023-03-13T17:58:18.246Z,2.95
2023-03-13T18:00:54.306Z,2.95
2023-03-13T18:03:33.948Z,3.83
2023-03-13T18:06:18.295Z,3.58
2023-03-13T18:08:52.580Z,3.17
2023-03-13T18:11:25.063Z,3.83
2023-03-13T18:13:56.948Z,3.53
2023-03-13T18:16:40.714Z,3.42
2023-03-13T18:19:19.560Z,3.80
2023-03-13T18:21:52.612Z,3.38
2023-03-13T18:24:28.150Z,3.78
2023-03-13T18:27:22.128Z,3.22
2023-03-13T18:29:53.874Z,3.83
2023-03-13T18:32:23.059Z,3.67
2023-03-13T18:34:53.043Z,2.40
2023-03-13T18:37:26.904Z,3.25
2023-03-13T18:40:12.216Z,4.40
2023-03-13T18:43:07.862Z,3.88
2023-03-13T18:48:10.676Z,3.15
2023-03-13T18:51:07.346Z,2.75
2023-03-13T18:54:32.394Z,3.33
2023-03-13T18:57:15.873Z,3.67
2023-03-13T18:59:54.768Z,3.70
2023-03-13T19:02:27.302Z,3.92
2023-03-13T19:05:02.467Z,3.50
2023-03-13T19:07:36.657Z,3.78
2023-03-13T19:10:24.720Z,3.10
2023-03-13T19:13:06.341Z,2.65
2023-03-13T19:15:34.668Z,3.15
2023-03-13T19:18:06.284Z,3.25
2023-03-13T19:20:38.967Z,3.90
2023-03-13T19:23:15.222Z,3.40
2023-03-13T19:25:57.525Z,3.38
2023-03-13T19:28:30.924Z,3.40
2023-03-13T19:31:02.574Z,3.10
2023-03-13T19:33:35.010Z,2.97
2023-03-13T19:36:10.040Z,3.75
2023-03-13T19:38:40.160Z,2.17
2023-03-13T19:41:13.071Z,3.47
2023-03-13T19:43:43.060Z,3.45
2023-03-13T19:46:20.595Z,3.80
2023-03-13T19:48:48.852Z,2.70
2023-03-13T19:51:19.757Z,3.55
2023-03-13T19:54:02.972Z,3.13
2023-03-13T19:56:33.920Z,2.95
2023-03-13T19:59:08.274Z,3.40
2023-03-13T20:01:43.223Z,3.83
2023-03-13T20:04:13.755Z,3.10
2023-03-13T20:06:51.374Z,2.78
2023-03-13T20:11:52.266Z,2.45
2023-03-13T20:14:22.220Z,2.78
2023-03-13T20:16:53.240Z,3.08
2023-03-13T20:19:31.457Z,2.45
2023-03-13T20:22:05.576Z,3.20
2023-03-13T20:24:42.062Z,3.42
2023-03-13T20:27:12.606Z,3.60
2023-03-13T20:29:46.258Z,3.33
2023-03-13T20:32:14.810Z,4.10
2023-03-13T20:37:13.096Z,3.72
2023-03-13T20:39:44.192Z,2.80
2023-03-13T20:42:14.143Z,2.83
2023-03-13T20:44:50.917Z,2.85
2023-03-13T20:47:20.008Z,3.08
2023-03-13T20:49:50.952Z,3.88
2023-03-13T20:52:19.738Z,3.58
2023-03-13T20:54:51.201Z,3.28
2023-03-13T20:57:22.604Z,3.22
2023-03-13T20:59:58.178Z,2.92
2023-03-13T21:02:30.771Z,2.83
2023-03-13T21:05:06.328Z,3.47
2023-03-13T21:07:34.590Z,3.03
2023-03-13T21:12:47.939Z,2.97
2023-03-13T21:15:17.961Z,3.33
2023-03-13T21:17:46.623Z,3.55
2023-03-13T21:20:14.786Z,2.60
2023-03-13T21:22:52.610Z,2.70
2023-03-13T21:25:23.494Z,2.67
2023-03-13T21:27:54.243Z,3.53
2023-03-13T21:30:27.114Z,2.40
2023-03-13T21:32:54.952Z,2.60
2023-03-13T21:35:23.727Z,2.90
2023-03-13T21:37:52.714Z,4.18
2023-03-13T21:40:24.853Z,2.72
2023-03-13T21:43:00.751Z,3.15
2023-03-13T21:45:35.048Z,2.67
2023-03-13T21:48:05.877Z,2.65
2023-03-13T21:50:45.434Z,3.17
2023-03-13T21:53:13.598Z,3.08
2023-03-13T21:55:48.736Z,2.67
2023-03-13T21:58:17.014Z,3.47
2023-03-13T22:00:47.063Z,2.80
2023-03-13T22:03:17.986Z,3.08
2023-03-13T22:05:50.930Z,3.30
2023-03-13T22:08:25.873Z,3.17
2023-03-13T22:11:06.464Z,3.75
2023-03-13T22:13:34.824Z,2.78
2023-03-13T22:16:12.310Z,2.60
2023-03-13T22:18:42.014Z,3.17
2023-03-13T22:21:15.447Z,3.15
2023-03-13T22:23:49.635Z,2.83
2023-03-13T22:26:25.174Z,2.72
2023-03-13T22:29:03.225Z,2.83
2023-03-13T22:31:41.522Z,2.63
2023-03-13T22:34:22.252Z,2.08
2023-03-13T22:37:04.560Z,2.30
2023-03-13T22:39:36.503Z,3.00
2023-03-13T22:42:07.833Z,2.65
2023-03-13T22:47:13.425Z,2.30
2023-03-13T22:49:51.050Z,2.20
2023-03-13T22:52:23.609Z,2.53
2023-03-13T22:54:55.099Z,2.75
2023-03-13T22:57:36.312Z,2.47
2023-03-13T23:00:09.665Z,2.55
2023-03-13T23:02:45.434Z,2.88
2023-03-13T23:05:19.519Z,2.55
2023-03-13T23:07:50.509Z,3.28
2023-03-13T23:10:21.365Z,2.60
2023-03-13T23:12:56.738Z,2.63
2023-03-13T23:15:24.719Z,2.70
2023-03-13T23:17:55.889Z,2.60
2023-03-13T23:20:23.272Z,2.30
2023-03-13T23:22:50.916Z,2.97
2023-03-13T23:25:27.617Z,1.85
2023-03-13T23:27:58.833Z,2.35
2023-03-13T23:30:31.616Z,2.28
2023-03-13T23:33:07.672Z,2.50
2023-03-13T23:35:37.046Z,1.92
2023-03-13T23:38:07.869Z,2.00
2023-03-13T23:40:36.981Z,2.00
2023-03-13T23:43:08.473Z,2.25
2023-03-13T23:45:39.453Z,1.83
2023-03-13T23:48:12.664Z,2.13
2023-03-13T23:50:45.916Z,2.58
2023-03-13T23:53:16.946Z,2.17
2023-03-13T23:55:48.998Z,1.45
2023-03-13T23:58:22.001Z,2.55
